Aeroporto :
LOGIN :

Iscrizione | Disclaimer

   EN    FR    IT 

 










Sommario :    VFR   VFR Marginale   IFR   IFR Intensivo   IFR Molto Intensivo
Visibilità : 
Base nubi : 
>= 8 km
>= 3000ft
5 / 8 km
1000 / 3000 ft
1500m / 5 km
500 / 1000 ft
800 / 1500m
200 / 500 ft
< 800m
< 200 ft
Simboli :   Temporali  Nebbia  Neve Forte  Precipitazioni Forti  Vento > 20 kt
SIGMETs :   Varie  Temporali  Ghiacco  Turbolenza  Onda orograficha  Ceneri Vulcaniche






- Altitudine del aeroporto : 3 ft
- Codice IATA : DHR


EHKD - Den Helder De Kooy

ULTIMO METAR :
  • 271735Z AUTO 32006KT 290V020 9999 SCT016 BKN020 BKN023 04/02 Q1000 WHT 31006KT 9999 SCT022 BKN060 TEMPO 4000 SHRA FEW007 SCT019

METARs OBSOLETI :
  • 271725Z AUTO 31005KT 270V360 9999 FEW015CB BKN081 BKN086 03/02 Q1000 BLU 31006KT 9999 FEW009 SCT022 BKN060
  • 271707Z AUTO 30006KT 270V340 9999 FEW042 BKN053 BKN059 03/02 Q0999 BLU 31006KT 9999 FEW009 SCT022 BKN060
  • 271655Z AUTO 31008KT 270V340 9999 SHRA FEW007 BKN009 OVC011 03/02 Q0999 REDZ GRN 31006KT 9999 FEW009 SCT022 BKN060
  • 271629Z AUTO 30005KT 270V330 9999 -RA FEW008 BKN011 OVC015 03/02 Q0998 GRN 31006KT 9999 FEW009 SCT022 BKN060
  • 271625Z AUTO 31004KT 270V330 9999 FEW008 SCT015 BKN019 03/02 Q0998 WHT 31006KT 9999 FEW009 SCT022 BKN060
  • 271613Z AUTO 30005KT 270V330 9999 FEW007 BKN019 BKN024 03/02 Q0998 WHT 30006KT 9999 FEW009 SCT022 BKN060
  • 271555Z AUTO 30006KT 280V340 9999 -UP SCT007 BKN022 BKN027 03/02 Q0998 GRN 30006KT 9999 FEW009 SCT022 BKN060
  • 271525Z AUTO 29005KT 250V350 9999 FEW005 BKN006 OVC008 03/02 Q0997 REDZ YLO 29004KT 9999 FEW006 SCT009 BKN060

TAF TAF EHKD
Valido dal 27 a 14 ore il 28 a 02 ore UTC


271305Z 2714/2802 18010KT 8000 -RA BKN006 OVC008
TEMPO 2714/2718 3000 RASN SHRASN SCT003 OVC006 FEW015CB
PROB30
TEMPO 2714/2717 1500 SNRA SCT002 BKN003
BECMG 2714/2717 32015KT
BECMG 2717/2719 9999 NSW FEW022



MetMap, La meteo Aeronautica in un colpo d'occhio ! - Copyright ORBIFLY Dicembre 2007 - Disclaimer

ORBIFLY MET'MAP TEAM :

Programmazione e sviluppo : Alexandra Zaïnal
Concezione : Baudouin d'Aumeries
Aiuto per la programmazione : Marc-Olivier Méhu
Supporto tecnico e logistico : Manuel Goepfert
Aiuto per la traduzione : Arnaldo La Scala

Contatto : metmap@orbifly.com




FONTI E CREDITI :

   NOAA